sensor_id;sensor_type;location;lat;lon;timestamp;pressure;altitude;pressure_sealevel;temperature
18704;BMP180;9481;48.796;9.210;2023-03-01T00:01:59;97220.00;;;9.50
18704;BMP180;9481;48.796;9.210;2023-03-01T00:04:25;97207.00;;;9.50
18704;BMP180;9481;48.796;9.210;2023-03-01T00:06:51;97210.00;;;9.50
18704;BMP180;9481;48.796;9.210;2023-03-01T00:09:17;97209.00;;;9.50
18704;BMP180;9481;48.796;9.210;2023-03-01T00:11:43;97214.00;;;9.50
18704;BMP180;9481;48.796;9.210;2023-03-01T00:14:09;97216.00;;;9.50
18704;BMP180;9481;48.796;9.210;2023-03-01T00:16:41;97223.00;;;9.60
18704;BMP180;9481;48.796;9.210;2023-03-01T00:19:13;97209.00;;;9.60
18704;BMP180;9481;48.796;9.210;2023-03-01T00:21:39;97214.00;;;9.60
18704;BMP180;9481;48.796;9.210;2023-03-01T00:24:06;97218.00;;;9.60
18704;BMP180;9481;48.796;9.210;2023-03-01T00:26:32;97218.00;;;9.60
18704;BMP180;9481;48.796;9.210;2023-03-01T00:28:59;97213.00;;;9.60
18704;BMP180;9481;48.796;9.210;2023-03-01T00:31:30;97219.00;;;9.60
18704;BMP180;9481;48.796;9.210;2023-03-01T00:34:00;97222.00;;;9.60
18704;BMP180;9481;48.796;9.210;2023-03-01T00:36:32;97214.00;;;9.60
18704;BMP180;9481;48.796;9.210;2023-03-01T00:38:59;97212.00;;;9.60
18704;BMP180;9481;48.796;9.210;2023-03-01T00:41:25;97211.00;;;9.60
18704;BMP180;9481;48.796;9.210;2023-03-01T00:43:55;97201.00;;;9.60
18704;BMP180;9481;48.796;9.210;2023-03-01T00:46:25;97201.00;;;9.60
18704;BMP180;9481;48.796;9.210;2023-03-01T00:48:51;97198.00;;;9.60
18704;BMP180;9481;48.796;9.210;2023-03-01T00:51:21;97195.00;;;9.60
18704;BMP180;9481;48.796;9.210;2023-03-01T00:53:50;97199.00;;;9.60
18704;BMP180;9481;48.796;9.210;2023-03-01T00:56:16;97199.00;;;9.60
18704;BMP180;9481;48.796;9.210;2023-03-01T00:58:42;97196.00;;;9.60
18704;BMP180;9481;48.796;9.210;2023-03-01T01:01:17;97195.00;;;9.60
18704;BMP180;9481;48.796;9.210;2023-03-01T01:03:57;97193.00;;;9.60
18704;BMP180;9481;48.796;9.210;2023-03-01T01:06:33;97190.00;;;9.60
18704;BMP180;9481;48.796;9.210;2023-03-01T01:08:59;97187.00;;;9.50
18704;BMP180;9481;48.796;9.210;2023-03-01T01:11:28;97189.00;;;9.50
18704;BMP180;9481;48.796;9.210;2023-03-01T01:13:55;97189.00;;;9.50
18704;BMP180;9481;48.796;9.210;2023-03-01T01:16:24;97188.00;;;9.50
18704;BMP180;9481;48.796;9.210;2023-03-01T01:18:50;97189.00;;;9.50
18704;BMP180;9481;48.796;9.210;2023-03-01T01:21:19;97178.00;;;9.50
18704;BMP180;9481;48.796;9.210;2023-03-01T01:23:46;97181.00;;;9.50
18704;BMP180;9481;48.796;9.210;2023-03-01T01:26:21;97183.00;;;9.40
18704;BMP180;9481;48.796;9.210;2023-03-01T01:28:48;97175.00;;;9.40
18704;BMP180;9481;48.796;9.210;2023-03-01T01:31:15;97178.00;;;9.40
18704;BMP180;9481;48.796;9.210;2023-03-01T01:33:41;97172.00;;;9.40
18704;BMP180;9481;48.796;9.210;2023-03-01T01:36:07;97172.00;;;9.30
18704;BMP180;9481;48.796;9.210;2023-03-01T01:38:35;97176.00;;;9.30
18704;BMP180;9481;48.796;9.210;2023-03-01T01:41:01;97168.00;;;9.30
18704;BMP180;9481;48.796;9.210;2023-03-01T01:43:31;97153.00;;;9.20
18704;BMP180;9481;48.796;9.210;2023-03-01T01:46:04;97164.00;;;9.20
18704;BMP180;9481;48.796;9.210;2023-03-01T01:48:46;97156.00;;;9.10
18704;BMP180;9481;48.796;9.210;2023-03-01T01:51:19;97164.00;;;9.10
18704;BMP180;9481;48.796;9.210;2023-03-01T01:53:52;97156.00;;;9.10
18704;BMP180;9481;48.796;9.210;2023-03-01T01:56:20;97159.00;;;9.10
18704;BMP180;9481;48.796;9.210;2023-03-01T01:58:47;97159.00;;;9.10
18704;BMP180;9481;48.796;9.210;2023-03-01T02:01:13;97154.00;;;9.00
18704;BMP180;9481;48.796;9.210;2023-03-01T02:03:43;97148.00;;;9.00
18704;BMP180;9481;48.796;9.210;2023-03-01T02:06:21;97140.00;;;8.90
18704;BMP180;9481;48.796;9.210;2023-03-01T02:08:59;97145.00;;;8.90
18704;BMP180;9481;48.796;9.210;2023-03-01T02:11:27;97129.00;;;8.80
18704;BMP180;9481;48.796;9.210;2023-03-01T02:13:55;97133.00;;;8.90
18704;BMP180;9481;48.796;9.210;2023-03-01T02:16:21;97131.00;;;8.90
18704;BMP180;9481;48.796;9.210;2023-03-01T02:18:46;97130.00;;;8.90
18704;BMP180;9481;48.796;9.210;2023-03-01T02:21:38;97133.00;;;8.90
18704;BMP180;9481;48.796;9.210;2023-03-01T02:24:39;97127.00;;;8.90
18704;BMP180;9481;48.796;9.210;2023-03-01T02:27:06;97111.00;;;8.90
18704;BMP180;9481;48.796;9.210;2023-03-01T02:29:32;97118.00;;;8.90
18704;BMP180;9481;48.796;9.210;2023-03-01T02:32:02;97113.00;;;8.80
18704;BMP180;9481;48.796;9.210;2023-03-01T02:34:29;97115.00;;;8.80
18704;BMP180;9481;48.796;9.210;2023-03-01T02:37:02;97110.00;;;8.80
18704;BMP180;9481;48.796;9.210;2023-03-01T02:39:51;97103.00;;;8.80
18704;BMP180;9481;48.796;9.210;2023-03-01T02:42:25;97111.00;;;8.80
18704;BMP180;9481;48.796;9.210;2023-03-01T02:44:51;97109.00;;;8.80
18704;BMP180;9481;48.796;9.210;2023-03-01T02:47:17;97101.00;;;8.70
18704;BMP180;9481;48.796;9.210;2023-03-01T02:49:42;97102.00;;;8.80
18704;BMP180;9481;48.796;9.210;2023-03-01T02:52:17;97101.00;;;8.80
18704;BMP180;9481;48.796;9.210;2023-03-01T02:55:09;97096.00;;;8.80
18704;BMP180;9481;48.796;9.210;2023-03-01T02:57:40;97092.00;;;8.80
18704;BMP180;9481;48.796;9.210;2023-03-01T03:00:12;97084.00;;;8.90
18704;BMP180;9481;48.796;9.210;2023-03-01T03:02:46;97086.00;;;8.90
18704;BMP180;9481;48.796;9.210;2023-03-01T03:05:20;97085.00;;;8.90
18704;BMP180;9481;48.796;9.210;2023-03-01T03:07:48;97085.00;;;8.90
18704;BMP180;9481;48.796;9.210;2023-03-01T03:10:27;97086.00;;;8.80
18704;BMP180;9481;48.796;9.210;2023-03-01T03:13:09;97079.00;;;8.80
18704;BMP180;9481;48.796;9.210;2023-03-01T03:15:36;97079.00;;;8.80
18704;BMP180;9481;48.796;9.210;2023-03-01T03:18:03;97074.00;;;8.80
18704;BMP180;9481;48.796;9.210;2023-03-01T03:20:30;97074.00;;;8.80
18704;BMP180;9481;48.796;9.210;2023-03-01T03:22:57;97066.00;;;8.80
18704;BMP180;9481;48.796;9.210;2023-03-01T03:25:26;97081.00;;;8.70
18704;BMP180;9481;48.796;9.210;2023-03-01T03:27:53;97067.00;;;8.70
18704;BMP180;9481;48.796;9.210;2023-03-01T03:30:25;97079.00;;;8.80
18704;BMP180;9481;48.796;9.210;2023-03-01T03:32:51;97077.00;;;8.80
18704;BMP180;9481;48.796;9.210;2023-03-01T03:35:32;97065.00;;;8.80
18704;BMP180;9481;48.796;9.210;2023-03-01T03:38:03;97069.00;;;8.80
18704;BMP180;9481;48.796;9.210;2023-03-01T03:40:39;97075.00;;;8.80
18704;BMP180;9481;48.796;9.210;2023-03-01T03:43:08;97076.00;;;8.80
18704;BMP180;9481;48.796;9.210;2023-03-01T03:45:35;97073.00;;;8.80
18704;BMP180;9481;48.796;9.210;2023-03-01T03:48:05;97073.00;;;8.90
18704;BMP180;9481;48.796;9.210;2023-03-01T03:50:32;97066.00;;;8.90
18704;BMP180;9481;48.796;9.210;2023-03-01T03:53:00;97067.00;;;8.90
18704;BMP180;9481;48.796;9.210;2023-03-01T03:55:26;97078.00;;;9.00
18704;BMP180;9481;48.796;9.210;2023-03-01T03:57:58;97066.00;;;9.00
18704;BMP180;9481;48.796;9.210;2023-03-01T04:00:27;97066.00;;;9.00
18704;BMP180;9481;48.796;9.210;2023-03-01T04:02:53;97056.00;;;9.00
18704;BMP180;9481;48.796;9.210;2023-03-01T04:05:23;97057.00;;;9.10
18704;BMP180;9481;48.796;9.210;2023-03-01T04:07:49;97059.00;;;9.10
18704;BMP180;9481;48.796;9.210;2023-03-01T04:10:17;97059.00;;;9.00
18704;BMP180;9481;48.796;9.210;2023-03-01T04:12:44;97052.00;;;9.00
18704;BMP180;9481;48.796;9.210;2023-03-01T04:15:11;97049.00;;;9.00
18704;BMP180;9481;48.796;9.210;2023-03-01T04:17:45;97044.00;;;9.00
18704;BMP180;9481;48.796;9.210;2023-03-01T04:20:14;97039.00;;;9.00
18704;BMP180;9481;48.796;9.210;2023-03-01T04:22:43;97035.00;;;9.00
18704;BMP180;9481;48.796;9.210;2023-03-01T04:25:13;97037.00;;;9.00
18704;BMP180;9481;48.796;9.210;2023-03-01T04:27:40;97041.00;;;9.00
18704;BMP180;9481;48.796;9.210;2023-03-01T04:30:07;97034.00;;;9.00
18704;BMP180;9481;48.796;9.210;2023-03-01T04:32:33;97039.00;;;9.00
18704;BMP180;9481;48.796;9.210;2023-03-01T04:35:00;97045.00;;;8.90
18704;BMP180;9481;48.796;9.210;2023-03-01T04:37:25;97034.00;;;8.90
18704;BMP180;9481;48.796;9.210;2023-03-01T04:39:51;97037.00;;;8.90
18704;BMP180;9481;48.796;9.210;2023-03-01T04:42:18;97043.00;;;8.90
18704;BMP180;9481;48.796;9.210;2023-03-01T04:44:44;97038.00;;;8.90
18704;BMP180;9481;48.796;9.210;2023-03-01T04:47:11;97037.00;;;8.90
18704;BMP180;9481;48.796;9.210;2023-03-01T04:49:36;97039.00;;;8.90
18704;BMP180;9481;48.796;9.210;2023-03-01T04:52:03;97046.00;;;8.90
18704;BMP180;9481;48.796;9.210;2023-03-01T04:54:30;97039.00;;;8.90
18704;BMP180;9481;48.796;9.210;2023-03-01T04:56:57;97033.00;;;8.90
18704;BMP180;9481;48.796;9.210;2023-03-01T04:59:23;97030.00;;;8.90
18704;BMP180;9481;48.796;9.210;2023-03-01T05:01:51;97034.00;;;8.90
18704;BMP180;9481;48.796;9.210;2023-03-01T05:04:17;97031.00;;;8.90
18704;BMP180;9481;48.796;9.210;2023-03-01T05:06:42;97042.00;;;8.90
18704;BMP180;9481;48.796;9.210;2023-03-01T05:09:08;97039.00;;;9.00
18704;BMP180;9481;48.796;9.210;2023-03-01T05:11:34;97041.00;;;9.00
18704;BMP180;9481;48.796;9.210;2023-03-01T05:14:06;97040.00;;;9.00
18704;BMP180;9481;48.796;9.210;2023-03-01T05:16:33;97035.00;;;9.00
18704;BMP180;9481;48.796;9.210;2023-03-01T05:18:59;97036.00;;;9.00
18704;BMP180;9481;48.796;9.210;2023-03-01T05:21:25;97030.00;;;9.00
18704;BMP180;9481;48.796;9.210;2023-03-01T05:23:51;97039.00;;;9.00
18704;BMP180;9481;48.796;9.210;2023-03-01T05:26:19;97028.00;;;9.00
18704;BMP180;9481;48.796;9.210;2023-03-01T05:28:47;97027.00;;;8.90
18704;BMP180;9481;48.796;9.210;2023-03-01T05:31:13;97035.00;;;8.90
18704;BMP180;9481;48.796;9.210;2023-03-01T05:33:40;97029.00;;;8.90
18704;BMP180;9481;48.796;9.210;2023-03-01T05:36:08;97032.00;;;8.90
18704;BMP180;9481;48.796;9.210;2023-03-01T05:38:35;97036.00;;;8.90
18704;BMP180;9481;48.796;9.210;2023-03-01T05:41:02;97029.00;;;8.90
18704;BMP180;9481;48.796;9.210;2023-03-01T05:43:31;97035.00;;;8.80
18704;BMP180;9481;48.796;9.210;2023-03-01T05:45:59;97037.00;;;8.80
18704;BMP180;9481;48.796;9.210;2023-03-01T05:48:25;97037.00;;;8.80
18704;BMP180;9481;48.796;9.210;2023-03-01T05:50:51;97040.00;;;8.90
18704;BMP180;9481;48.796;9.210;2023-03-01T05:53:19;97037.00;;;8.90
18704;BMP180;9481;48.796;9.210;2023-03-01T05:55:47;97028.00;;;8.90
18704;BMP180;9481;48.796;9.210;2023-03-01T05:58:16;97019.00;;;8.90
18704;BMP180;9481;48.796;9.210;2023-03-01T06:00:46;97029.00;;;8.90
18704;BMP180;9481;48.796;9.210;2023-03-01T06:03:15;97022.00;;;8.90
18704;BMP180;9481;48.796;9.210;2023-03-01T06:05:41;97015.00;;;9.00
18704;BMP180;9481;48.796;9.210;2023-03-01T06:08:09;97014.00;;;9.00
18704;BMP180;9481;48.796;9.210;2023-03-01T06:10:35;97011.00;;;9.00
18704;BMP180;9481;48.796;9.210;2023-03-01T06:13:00;97010.00;;;9.00
18704;BMP180;9481;48.796;9.210;2023-03-01T06:15:26;97018.00;;;9.00
18704;BMP180;9481;48.796;9.210;2023-03-01T06:17:54;97015.00;;;9.00
18704;BMP180;9481;48.796;9.210;2023-03-01T06:20:27;97024.00;;;9.00
18704;BMP180;9481;48.796;9.210;2023-03-01T06:22:53;97018.00;;;9.10
18704;BMP180;9481;48.796;9.210;2023-03-01T06:25:22;97019.00;;;9.10
18704;BMP180;9481;48.796;9.210;2023-03-01T06:27:48;97015.00;;;9.10
18704;BMP180;9481;48.796;9.210;2023-03-01T06:30:17;97009.00;;;9.10
18704;BMP180;9481;48.796;9.210;2023-03-01T06:32:44;97018.00;;;9.10
18704;BMP180;9481;48.796;9.210;2023-03-01T06:35:12;97012.00;;;9.10
18704;BMP180;9481;48.796;9.210;2023-03-01T06:37:40;97019.00;;;9.10
18704;BMP180;9481;48.796;9.210;2023-03-01T06:40:07;97014.00;;;9.20
18704;BMP180;9481;48.796;9.210;2023-03-01T06:42:35;97016.00;;;9.20
18704;BMP180;9481;48.796;9.210;2023-03-01T06:45:03;97028.00;;;9.30
18704;BMP180;9481;48.796;9.210;2023-03-01T06:47:28;97012.00;;;9.30
18704;BMP180;9481;48.796;9.210;2023-03-01T06:49:55;97024.00;;;9.40
18704;BMP180;9481;48.796;9.210;2023-03-01T06:52:21;97018.00;;;9.40
18704;BMP180;9481;48.796;9.210;2023-03-01T06:54:46;97021.00;;;9.40
18704;BMP180;9481;48.796;9.210;2023-03-01T06:57:12;97032.00;;;9.50
18704;BMP180;9481;48.796;9.210;2023-03-01T06:59:38;97020.00;;;9.50
18704;BMP180;9481;48.796;9.210;2023-03-01T07:02:03;97022.00;;;9.50
18704;BMP180;9481;48.796;9.210;2023-03-01T07:04:29;97018.00;;;9.70
18704;BMP180;9481;48.796;9.210;2023-03-01T07:06:56;97020.00;;;10.10
18704;BMP180;9481;48.796;9.210;2023-03-01T07:09:23;97015.00;;;10.40
18704;BMP180;9481;48.796;9.210;2023-03-01T07:11:49;97013.00;;;10.70
18704;BMP180;9481;48.796;9.210;2023-03-01T07:14:16;97012.00;;;11.00
18704;BMP180;9481;48.796;9.210;2023-03-01T07:16:42;97013.00;;;11.20
18704;BMP180;9481;48.796;9.210;2023-03-01T07:19:07;97019.00;;;11.20
18704;BMP180;9481;48.796;9.210;2023-03-01T07:21:33;97017.00;;;11.20
18704;BMP180;9481;48.796;9.210;2023-03-01T07:23:59;97007.00;;;11.10
18704;BMP180;9481;48.796;9.210;2023-03-01T07:26:24;97002.00;;;11.10
18704;BMP180;9481;48.796;9.210;2023-03-01T07:28:50;96997.00;;;11.00
18704;BMP180;9481;48.796;9.210;2023-03-01T07:31:15;97005.00;;;11.00
18704;BMP180;9481;48.796;9.210;2023-03-01T07:33:41;96999.00;;;11.00
18704;BMP180;9481;48.796;9.210;2023-03-01T07:36:08;96988.00;;;11.00
18704;BMP180;9481;48.796;9.210;2023-03-01T07:38:34;97003.00;;;11.00
18704;BMP180;9481;48.796;9.210;2023-03-01T07:41:02;96996.00;;;11.00
18704;BMP180;9481;48.796;9.210;2023-03-01T07:43:30;96998.00;;;11.00
18704;BMP180;9481;48.796;9.210;2023-03-01T07:46:01;96985.00;;;10.90
18704;BMP180;9481;48.796;9.210;2023-03-01T07:48:28;96989.00;;;10.90
18704;BMP180;9481;48.796;9.210;2023-03-01T07:50:58;96983.00;;;11.00
18704;BMP180;9481;48.796;9.210;2023-03-01T07:53:24;96979.00;;;11.00
18704;BMP180;9481;48.796;9.210;2023-03-01T07:55:49;96974.00;;;10.90
18704;BMP180;9481;48.796;9.210;2023-03-01T07:58:15;96973.00;;;10.90
18704;BMP180;9481;48.796;9.210;2023-03-01T08:00:40;96987.00;;;10.90
18704;BMP180;9481;48.796;9.210;2023-03-01T08:03:06;96978.00;;;11.00
18704;BMP180;9481;48.796;9.210;2023-03-01T08:05:32;96973.00;;;11.00
18704;BMP180;9481;48.796;9.210;2023-03-01T08:07:57;96980.00;;;11.10
18704;BMP180;9481;48.796;9.210;2023-03-01T08:10:24;96974.00;;;11.10
18704;BMP180;9481;48.796;9.210;2023-03-01T08:12:51;96979.00;;;11.20
18704;BMP180;9481;48.796;9.210;2023-03-01T08:15:18;96978.00;;;11.30
18704;BMP180;9481;48.796;9.210;2023-03-01T08:17:44;96965.00;;;11.30
18704;BMP180;9481;48.796;9.210;2023-03-01T08:20:10;96970.00;;;11.40
18704;BMP180;9481;48.796;9.210;2023-03-01T08:22:37;96970.00;;;11.40
18704;BMP180;9481;48.796;9.210;2023-03-01T08:25:03;96976.00;;;11.40
18704;BMP180;9481;48.796;9.210;2023-03-01T08:27:29;96980.00;;;11.50
18704;BMP180;9481;48.796;9.210;2023-03-01T08:29:55;96968.00;;;11.50
18704;BMP180;9481;48.796;9.210;2023-03-01T08:32:20;96974.00;;;11.60
18704;BMP180;9481;48.796;9.210;2023-03-01T08:34:47;96977.00;;;11.70
18704;BMP180;9481;48.796;9.210;2023-03-01T08:37:13;96970.00;;;11.70
18704;BMP180;9481;48.796;9.210;2023-03-01T08:39:39;96973.00;;;11.70
18704;BMP180;9481;48.796;9.210;2023-03-01T08:42:04;96965.00;;;11.70
18704;BMP180;9481;48.796;9.210;2023-03-01T08:44:30;96968.00;;;11.80
18704;BMP180;9481;48.796;9.210;2023-03-01T08:46:56;96969.00;;;11.90
18704;BMP180;9481;48.796;9.210;2023-03-01T08:49:23;96964.00;;;11.90
18704;BMP180;9481;48.796;9.210;2023-03-01T08:51:49;96968.00;;;12.00
18704;BMP180;9481;48.796;9.210;2023-03-01T08:54:19;96962.00;;;12.00
18704;BMP180;9481;48.796;9.210;2023-03-01T08:56:46;96965.00;;;12.10
18704;BMP180;9481;48.796;9.210;2023-03-01T08:59:14;96951.00;;;12.10
18704;BMP180;9481;48.796;9.210;2023-03-01T09:01:41;96955.00;;;12.20
18704;BMP180;9481;48.796;9.210;2023-03-01T09:04:09;96959.00;;;12.20
18704;BMP180;9481;48.796;9.210;2023-03-01T09:06:36;96946.00;;;12.30
18704;BMP180;9481;48.796;9.210;2023-03-01T09:09:04;96949.00;;;12.30
18704;BMP180;9481;48.796;9.210;2023-03-01T09:11:30;96944.00;;;12.40
18704;BMP180;9481;48.796;9.210;2023-03-01T09:13:57;96939.00;;;12.40
18704;BMP180;9481;48.796;9.210;2023-03-01T09:16:23;96940.00;;;12.50
18704;BMP180;9481;48.796;9.210;2023-03-01T09:18:54;96931.00;;;12.60
18704;BMP180;9481;48.796;9.210;2023-03-01T09:21:22;96931.00;;;12.60
18704;BMP180;9481;48.796;9.210;2023-03-01T09:23:49;96927.00;;;12.70
18704;BMP180;9481;48.796;9.210;2023-03-01T09:26:21;96921.00;;;12.80
18704;BMP180;9481;48.796;9.210;2023-03-01T09:28:50;96916.00;;;12.90
18704;BMP180;9481;48.796;9.210;2023-03-01T09:31:19;96930.00;;;12.90
18704;BMP180;9481;48.796;9.210;2023-03-01T09:33:50;96926.00;;;13.00
18704;BMP180;9481;48.796;9.210;2023-03-01T09:36:23;96931.00;;;13.10
18704;BMP180;9481;48.796;9.210;2023-03-01T09:38:51;96930.00;;;13.20
18704;BMP180;9481;48.796;9.210;2023-03-01T09:41:49;96925.00;;;13.30
18704;BMP180;9481;48.796;9.210;2023-03-01T09:47:29;96918.00;;;13.60
18704;BMP180;9481;48.796;9.210;2023-03-01T09:50:19;96922.00;;;13.70
18704;BMP180;9481;48.796;9.210;2023-03-01T09:53:07;96923.00;;;13.80
18704;BMP180;9481;48.796;9.210;2023-03-01T09:56:00;96911.00;;;14.00
18704;BMP180;9481;48.796;9.210;2023-03-01T09:58:47;96921.00;;;14.10
18704;BMP180;9481;48.796;9.210;2023-03-01T10:01:32;96918.00;;;14.20
18704;BMP180;9481;48.796;9.210;2023-03-01T10:04:26;96915.00;;;14.40
18704;BMP180;9481;48.796;9.210;2023-03-01T10:09:38;96905.00;;;14.60
18704;BMP180;9481;48.796;9.210;2023-03-01T10:12:17;96893.00;;;14.70
18704;BMP180;9481;48.796;9.210;2023-03-01T10:18:02;96895.00;;;14.90
18704;BMP180;9481;48.796;9.210;2023-03-01T10:20:48;96886.00;;;15.10
18704;BMP180;9481;48.796;9.210;2023-03-01T10:23:17;96889.00;;;15.20
18704;BMP180;9481;48.796;9.210;2023-03-01T10:26:20;96884.00;;;15.20
18704;BMP180;9481;48.796;9.210;2023-03-01T10:29:10;96887.00;;;15.20
18704;BMP180;9481;48.796;9.210;2023-03-01T10:31:43;96872.00;;;15.30
18704;BMP180;9481;48.796;9.210;2023-03-01T10:34:38;96871.00;;;15.40
18704;BMP180;9481;48.796;9.210;2023-03-01T10:37:20;96873.00;;;15.50
18704;BMP180;9481;48.796;9.210;2023-03-01T10:40:07;96874.00;;;15.60
18704;BMP180;9481;48.796;9.210;2023-03-01T10:42:46;96865.00;;;15.70
18704;BMP180;9481;48.796;9.210;2023-03-01T10:45:39;96880.00;;;15.90
18704;BMP180;9481;48.796;9.210;2023-03-01T10:48:19;96875.00;;;16.00
18704;BMP180;9481;48.796;9.210;2023-03-01T10:53:30;96872.00;;;16.20
18704;BMP180;9481;48.796;9.210;2023-03-01T10:56:12;96869.00;;;16.30
18704;BMP180;9481;48.796;9.210;2023-03-01T10:58:57;96863.00;;;16.40
18704;BMP180;9481;48.796;9.210;2023-03-01T11:06:40;96853.00;;;16.80
18704;BMP180;9481;48.796;9.210;2023-03-01T11:09:20;96845.00;;;16.90
18704;BMP180;9481;48.796;9.210;2023-03-01T11:11:52;96843.00;;;17.10
18704;BMP180;9481;48.796;9.210;2023-03-01T11:14:24;96842.00;;;17.20
18704;BMP180;9481;48.796;9.210;2023-03-01T11:17:13;96837.00;;;17.40
18704;BMP180;9481;48.796;9.210;2023-03-01T11:19:40;96842.00;;;17.50
18704;BMP180;9481;48.796;9.210;2023-03-01T11:22:18;96835.00;;;17.70
18704;BMP180;9481;48.796;9.210;2023-03-01T11:24:53;96822.00;;;17.80
18704;BMP180;9481;48.796;9.210;2023-03-01T11:27:28;96820.00;;;17.90
18704;BMP180;9481;48.796;9.210;2023-03-01T11:30:15;96830.00;;;18.00
18704;BMP180;9481;48.796;9.210;2023-03-01T11:35:55;96808.00;;;19.00
18704;BMP180;9481;48.796;9.210;2023-03-01T11:38:26;96798.00;;;19.80
18704;BMP180;9481;48.796;9.210;2023-03-01T11:41:01;96802.00;;;20.90
18704;BMP180;9481;48.796;9.210;2023-03-01T11:43:59;96799.00;;;22.00
18704;BMP180;9481;48.796;9.210;2023-03-01T11:49:36;96803.00;;;23.60
18704;BMP180;9481;48.796;9.210;2023-03-01T11:52:24;96802.00;;;24.10
18704;BMP180;9481;48.796;9.210;2023-03-01T12:09:30;96776.00;;;26.70
18704;BMP180;9481;48.796;9.210;2023-03-01T12:12:33;96774.00;;;27.00
18704;BMP180;9481;48.796;9.210;2023-03-01T12:15:33;96772.00;;;27.10
18704;BMP180;9481;48.796;9.210;2023-03-01T12:29:34;96734.00;;;25.00
18704;BMP180;9481;48.796;9.210;2023-03-01T12:32:45;96739.00;;;25.30
18704;BMP180;9481;48.796;9.210;2023-03-01T12:41:48;96736.00;;;26.20
18704;BMP180;9481;48.796;9.210;2023-03-01T12:48:08;96704.00;;;26.70
18704;BMP180;9481;48.796;9.210;2023-03-01T12:50:46;96702.00;;;26.80
18704;BMP180;9481;48.796;9.210;2023-03-01T12:53:24;96698.00;;;26.60
18704;BMP180;9481;48.796;9.210;2023-03-01T12:55:54;96702.00;;;26.60
18704;BMP180;9481;48.796;9.210;2023-03-01T13:01:57;96691.00;;;26.70
18704;BMP180;9481;48.796;9.210;2023-03-01T13:08:10;96687.00;;;26.90
18704;BMP180;9481;48.796;9.210;2023-03-01T13:10:49;96685.00;;;27.00
18704;BMP180;9481;48.796;9.210;2023-03-01T13:13:27;96681.00;;;27.00
18704;BMP180;9481;48.796;9.210;2023-03-01T13:15:54;96685.00;;;27.00
18704;BMP180;9481;48.796;9.210;2023-03-01T13:20:59;96686.00;;;26.90
18704;BMP180;9481;48.796;9.210;2023-03-01T13:23:38;96687.00;;;26.70
18704;BMP180;9481;48.796;9.210;2023-03-01T13:26:13;96687.00;;;26.60
18704;BMP180;9481;48.796;9.210;2023-03-01T13:28:56;96689.00;;;26.40
18704;BMP180;9481;48.796;9.210;2023-03-01T13:33:55;96687.00;;;26.40
18704;BMP180;9481;48.796;9.210;2023-03-01T13:39:31;96673.00;;;26.40
18704;BMP180;9481;48.796;9.210;2023-03-01T13:41:59;96673.00;;;26.60
18704;BMP180;9481;48.796;9.210;2023-03-01T13:44:36;96677.00;;;26.60
18704;BMP180;9481;48.796;9.210;2023-03-01T13:55:00;96677.00;;;26.90
18704;BMP180;9481;48.796;9.210;2023-03-01T13:57:34;96671.00;;;26.80
18704;BMP180;9481;48.796;9.210;2023-03-01T14:00:01;96665.00;;;26.90
18704;BMP180;9481;48.796;9.210;2023-03-01T14:02:28;96666.00;;;26.90
18704;BMP180;9481;48.796;9.210;2023-03-01T14:04:58;96656.00;;;27.00
18704;BMP180;9481;48.796;9.210;2023-03-01T14:07:27;96651.00;;;27.00
18704;BMP180;9481;48.796;9.210;2023-03-01T14:10:03;96654.00;;;27.10
18704;BMP180;9481;48.796;9.210;2023-03-01T14:13:13;96654.00;;;26.90
18704;BMP180;9481;48.796;9.210;2023-03-01T14:19:19;96671.00;;;26.30
18704;BMP180;9481;48.796;9.210;2023-03-01T14:21:47;96672.00;;;26.30
18704;BMP180;9481;48.796;9.210;2023-03-01T14:24:22;96677.00;;;26.20
18704;BMP180;9481;48.796;9.210;2023-03-01T14:26:49;96682.00;;;26.20
18704;BMP180;9481;48.796;9.210;2023-03-01T14:29:36;96670.00;;;26.00
18704;BMP180;9481;48.796;9.210;2023-03-01T14:32:22;96678.00;;;25.90
18704;BMP180;9481;48.796;9.210;2023-03-01T14:34:50;96677.00;;;25.80
18704;BMP180;9481;48.796;9.210;2023-03-01T14:37:31;96685.00;;;25.50
18704;BMP180;9481;48.796;9.210;2023-03-01T14:39:58;96675.00;;;25.30
18704;BMP180;9481;48.796;9.210;2023-03-01T14:42:30;96679.00;;;25.10
18704;BMP180;9481;48.796;9.210;2023-03-01T14:45:00;96678.00;;;24.90
18704;BMP180;9481;48.796;9.210;2023-03-01T14:47:33;96691.00;;;24.80
18704;BMP180;9481;48.796;9.210;2023-03-01T14:50:24;96689.00;;;24.40
18704;BMP180;9481;48.796;9.210;2023-03-01T14:52:55;96685.00;;;24.00
18704;BMP180;9481;48.796;9.210;2023-03-01T14:55:31;96685.00;;;23.50
18704;BMP180;9481;48.796;9.210;2023-03-01T14:57:58;96683.00;;;23.00
18704;BMP180;9481;48.796;9.210;2023-03-01T15:00:28;96687.00;;;22.50
18704;BMP180;9481;48.796;9.210;2023-03-01T15:03:00;96685.00;;;22.10
18704;BMP180;9481;48.796;9.210;2023-03-01T15:05:31;96688.00;;;21.80
18704;BMP180;9481;48.796;9.210;2023-03-01T15:08:00;96678.00;;;21.50
18704;BMP180;9481;48.796;9.210;2023-03-01T15:10:34;96688.00;;;21.10
18704;BMP180;9481;48.796;9.210;2023-03-01T15:13:21;96680.00;;;20.90
18704;BMP180;9481;48.796;9.210;2023-03-01T15:15:50;96676.00;;;20.90
18704;BMP180;9481;48.796;9.210;2023-03-01T15:18:25;96684.00;;;20.90
18704;BMP180;9481;48.796;9.210;2023-03-01T15:20:52;96678.00;;;21.00
18704;BMP180;9481;48.796;9.210;2023-03-01T15:23:26;96682.00;;;21.10
18704;BMP180;9481;48.796;9.210;2023-03-01T15:25:54;96689.00;;;21.20
18704;BMP180;9481;48.796;9.210;2023-03-01T15:28:42;96688.00;;;21.10
18704;BMP180;9481;48.796;9.210;2023-03-01T15:31:28;96681.00;;;21.10
18704;BMP180;9481;48.796;9.210;2023-03-01T15:34:21;96687.00;;;21.10
18704;BMP180;9481;48.796;9.210;2023-03-01T15:36:48;96689.00;;;21.00
18704;BMP180;9481;48.796;9.210;2023-03-01T15:39:40;96683.00;;;20.80
18704;BMP180;9481;48.796;9.210;2023-03-01T15:45:21;96673.00;;;20.30
18704;BMP180;9481;48.796;9.210;2023-03-01T15:47:56;96672.00;;;20.20
18704;BMP180;9481;48.796;9.210;2023-03-01T15:50:35;96672.00;;;20.10
18704;BMP180;9481;48.796;9.210;2023-03-01T15:53:10;96662.00;;;19.90
18704;BMP180;9481;48.796;9.210;2023-03-01T15:55:36;96650.00;;;19.60
18704;BMP180;9481;48.796;9.210;2023-03-01T15:58:10;96641.00;;;19.40
18704;BMP180;9481;48.796;9.210;2023-03-01T16:00:37;96645.00;;;19.20
18704;BMP180;9481;48.796;9.210;2023-03-01T16:03:05;96643.00;;;19.00
18704;BMP180;9481;48.796;9.210;2023-03-01T16:05:34;96641.00;;;18.70
18704;BMP180;9481;48.796;9.210;2023-03-01T16:08:02;96650.00;;;18.60
18704;BMP180;9481;48.796;9.210;2023-03-01T16:10:29;96652.00;;;18.40
18704;BMP180;9481;48.796;9.210;2023-03-01T16:12:55;96652.00;;;18.30
18704;BMP180;9481;48.796;9.210;2023-03-01T16:15:24;96645.00;;;18.10
18704;BMP180;9481;48.796;9.210;2023-03-01T16:17:51;96642.00;;;17.90
18704;BMP180;9481;48.796;9.210;2023-03-01T16:20:17;96644.00;;;17.70
18704;BMP180;9481;48.796;9.210;2023-03-01T16:22:45;96649.00;;;17.50